createdAt,value
2018-07-06T00:01:16.926Z,68.68
2018-07-06T00:03:38.265Z,69.07
2018-07-06T00:05:59.426Z,69.45
2018-07-06T00:08:20.778Z,70.01
2018-07-06T00:10:42.144Z,69.66
2018-07-06T00:13:03.467Z,70.10
2018-07-06T00:15:24.877Z,70.49
2018-07-06T00:17:46.125Z,70.48
2018-07-06T00:20:07.739Z,71.28
2018-07-06T00:22:28.874Z,70.75
2018-07-06T00:24:50.424Z,71.41
2018-07-06T00:27:05.953Z,72.51
2018-07-06T00:29:27.633Z,71.47
2018-07-06T00:31:49.184Z,71.79
2018-07-06T00:34:10.563Z,71.60
2018-07-06T00:36:31.826Z,71.82
2018-07-06T00:38:53.123Z,72.15
2018-07-06T00:41:14.466Z,72.22
2018-07-06T00:43:35.609Z,72.83
2018-07-06T00:45:56.904Z,72.36
2018-07-06T00:48:18.184Z,72.87
2018-07-06T00:50:39.466Z,72.74
2018-07-06T00:53:00.604Z,73.23
2018-07-06T00:55:21.917Z,72.55
2018-07-06T00:57:48.313Z,72.67
2018-07-06T01:00:09.675Z,74.29
2018-07-06T01:02:30.921Z,74.63
2018-07-06T01:04:52.294Z,73.70
2018-07-06T01:07:13.572Z,74.02
2018-07-06T01:09:34.897Z,74.21
2018-07-06T01:11:56.304Z,74.67
2018-07-06T01:14:17.667Z,74.46
2018-07-06T01:16:38.891Z,74.22
2018-07-06T01:19:00.228Z,74.28
2018-07-06T01:21:21.572Z,74.42
2018-07-06T01:23:43.185Z,74.50
2018-07-06T01:26:04.705Z,73.88
2018-07-06T01:28:26.179Z,75.01
2018-07-06T01:30:47.744Z,74.38
2018-07-06T01:33:09.178Z,74.60
2018-07-06T01:35:30.589Z,75.09
2018-07-06T01:37:51.811Z,74.84
2018-07-06T01:40:13.047Z,75.40
2018-07-06T01:42:34.347Z,76.19
2018-07-06T01:44:55.810Z,74.81
2018-07-06T01:47:17.219Z,75.30
2018-07-06T01:49:32.758Z,75.79
2018-07-06T01:51:54.050Z,76.27
2018-07-06T01:54:15.261Z,76.50
2018-07-06T01:56:36.457Z,75.91
2018-07-06T01:58:57.737Z,75.61
2018-07-06T02:01:19.076Z,76.16
2018-07-06T02:03:40.326Z,76.06
2018-07-06T02:06:01.623Z,75.50
2018-07-06T02:08:22.845Z,75.87
2018-07-06T02:10:44.061Z,74.52
2018-07-06T02:13:06.071Z,75.76
2018-07-06T02:15:27.232Z,75.26
2018-07-06T02:17:48.597Z,75.64
2018-07-06T02:20:09.982Z,75.04
2018-07-06T02:22:31.409Z,74.90
2018-07-06T02:24:52.681Z,74.60
2018-07-06T02:27:14.003Z,75.40
2018-07-06T02:29:35.250Z,76.29
2018-07-06T02:31:56.646Z,76.79
2018-07-06T02:34:17.910Z,77.43
2018-07-06T02:36:39.067Z,76.30
2018-07-06T02:39:00.288Z,77.24
2018-07-06T02:41:21.517Z,77.36
2018-07-06T02:43:42.779Z,77.15
2018-07-06T02:46:04.690Z,77.07
2018-07-06T02:48:25.873Z,77.96
2018-07-06T02:50:47.070Z,78.18
2018-07-06T02:53:08.311Z,78.09
2018-07-06T02:55:29.862Z,77.61
2018-07-06T02:57:51.182Z,77.34
2018-07-06T03:00:12.533Z,78.67
2018-07-06T03:02:33.821Z,78.42
2018-07-06T03:04:55.056Z,78.03
2018-07-06T03:07:16.369Z,78.22
2018-07-06T03:09:37.739Z,78.55
2018-07-06T03:11:59.085Z,78.99
2018-07-06T03:14:20.449Z,78.52
2018-07-06T03:16:41.744Z,79.11
2018-07-06T03:19:03.009Z,79.78
2018-07-06T03:21:24.347Z,79.99
2018-07-06T03:23:45.623Z,79.78
2018-07-06T03:26:06.890Z,78.82
2018-07-06T03:28:28.278Z,78.37
2018-07-06T03:30:49.494Z,78.69
2018-07-06T03:33:10.910Z,78.52
2018-07-06T03:35:32.075Z,78.32
2018-07-06T03:37:53.505Z,78.69
2018-07-06T03:40:14.746Z,78.76
2018-07-06T03:42:36.095Z,79.08
2018-07-06T03:44:57.402Z,79.58
2018-07-06T03:47:18.635Z,79.71
2018-07-06T03:49:39.813Z,79.55
2018-07-06T03:52:01.074Z,79.69
2018-07-06T03:54:22.321Z,78.40
2018-07-06T03:56:43.527Z,78.93
2018-07-06T03:59:04.765Z,79.16
2018-07-06T04:01:25.877Z,80.32
2018-07-06T04:06:21.964Z,78.78
2018-07-06T04:08:44.503Z,78.58
2018-07-06T04:11:05.822Z,79.49
2018-07-06T04:13:27.290Z,80.12
2018-07-06T04:15:49.530Z,79.68
2018-07-06T04:18:10.781Z,79.50
2018-07-06T04:20:31.956Z,79.87
2018-07-06T04:22:53.191Z,79.80
2018-07-06T04:25:14.568Z,79.14
2018-07-06T04:27:35.877Z,79.89
2018-07-06T04:29:57.301Z,79.79
2018-07-06T04:32:18.534Z,79.75
2018-07-06T04:34:39.755Z,79.10
2018-07-06T04:37:01.037Z,79.04
2018-07-06T04:39:22.349Z,78.50
2018-07-06T04:41:43.641Z,79.57
2018-07-06T04:44:04.892Z,79.21
2018-07-06T04:46:26.067Z,79.06
2018-07-06T04:48:47.484Z,79.12
2018-07-06T04:51:08.759Z,78.84
2018-07-06T04:53:29.942Z,77.91
2018-07-06T04:55:51.346Z,77.44
2018-07-06T04:58:12.552Z,77.52
2018-07-06T05:00:34.220Z,77.86
2018-07-06T05:02:55.482Z,78.92
2018-07-06T05:05:16.760Z,78.80
2018-07-06T05:07:38.123Z,78.42
2018-07-06T05:09:59.480Z,77.82
2018-07-06T05:12:20.835Z,78.57
2018-07-06T05:14:42.106Z,76.83
2018-07-06T05:17:03.567Z,77.15
2018-07-06T05:19:24.814Z,76.70
2018-07-06T05:21:46.116Z,77.91
2018-07-06T05:24:07.366Z,78.31
2018-07-06T05:26:28.662Z,77.31
2018-07-06T05:28:50.254Z,77.74
2018-07-06T05:31:11.617Z,77.22
2018-07-06T05:33:32.913Z,77.88
2018-07-06T05:35:54.393Z,77.35
2018-07-06T05:38:15.824Z,77.62
2018-07-06T05:40:37.134Z,78.26
2018-07-06T05:42:58.719Z,78.29
2018-07-06T05:45:19.874Z,78.01
2018-07-06T05:47:41.165Z,77.16
2018-07-06T05:50:02.457Z,77.83
2018-07-06T05:52:23.708Z,78.00
2018-07-06T05:54:45.003Z,76.79
2018-07-06T05:57:06.457Z,77.52
2018-07-06T05:59:27.660Z,76.91
2018-07-06T06:01:49.352Z,76.82
2018-07-06T06:04:10.665Z,76.77
2018-07-06T06:06:31.969Z,76.89
2018-07-06T06:08:35.028Z,77.49
2018-07-06T06:10:40.191Z,77.38
2018-07-06T06:12:45.502Z,76.75
2018-07-06T06:14:51.223Z,77.03
2018-07-06T06:16:56.482Z,76.05
2018-07-06T06:19:01.558Z,75.12
2018-07-06T06:21:06.624Z,74.25
2018-07-06T06:23:11.842Z,73.94
2018-07-06T06:25:17.787Z,74.04
2018-07-06T06:27:22.860Z,73.20
2018-07-06T06:29:28.016Z,74.64
2018-07-06T06:31:32.937Z,73.88
2018-07-06T06:33:37.909Z,73.20
2018-07-06T06:35:43.380Z,75.49
2018-07-06T06:37:48.375Z,75.09
2018-07-06T06:39:53.817Z,73.46
2018-07-06T06:41:58.849Z,73.30
2018-07-06T06:44:03.806Z,74.03
2018-07-06T06:46:08.864Z,73.57
2018-07-06T06:48:13.939Z,73.76
2018-07-06T06:50:19.057Z,72.53
2018-07-06T06:52:24.205Z,71.96
2018-07-06T06:54:29.505Z,71.17
2018-07-06T06:56:34.667Z,70.34
2018-07-06T06:58:40.173Z,71.12
2018-07-06T07:00:45.214Z,70.78
2018-07-06T07:02:50.195Z,71.06
2018-07-06T07:04:55.213Z,70.43
2018-07-06T07:07:00.431Z,70.17
2018-07-06T07:09:09.515Z,69.94
2018-07-06T07:11:14.476Z,69.59
2018-07-06T07:13:19.481Z,70.05
2018-07-06T07:15:24.367Z,71.35
2018-07-06T07:17:29.346Z,71.72
2018-07-06T07:19:34.587Z,70.70
2018-07-06T07:21:39.548Z,69.56
2018-07-06T07:23:44.833Z,69.39
2018-07-06T07:25:50.167Z,68.22
2018-07-06T07:27:55.186Z,68.00
2018-07-06T07:30:00.433Z,67.72
2018-07-06T07:32:05.458Z,68.95
2018-07-06T07:34:10.738Z,68.55
2018-07-06T07:36:15.784Z,67.58
2018-07-06T07:38:21.248Z,66.86
2018-07-06T07:40:26.392Z,66.11
2018-07-06T07:42:31.372Z,66.80
2018-07-06T07:44:36.558Z,68.75
2018-07-06T07:46:41.605Z,68.64
2018-07-06T07:48:46.673Z,67.60
2018-07-06T07:53:13.922Z,67.33
2018-07-06T07:55:18.898Z,66.46
2018-07-06T07:57:24.135Z,67.37
2018-07-06T07:59:30.789Z,66.67
2018-07-06T08:01:35.847Z,67.42
2018-07-06T08:03:40.694Z,66.31
2018-07-06T08:05:45.643Z,66.40
2018-07-06T08:07:50.906Z,65.60
2018-07-06T08:09:55.967Z,68.47
2018-07-06T08:12:02.424Z,68.29
2018-07-06T08:14:07.911Z,66.89
2018-07-06T08:16:13.951Z,67.33
2018-07-06T08:18:19.230Z,66.09
2018-07-06T08:20:24.641Z,66.15
2018-07-06T08:22:29.708Z,66.75
2018-07-06T08:24:34.626Z,65.86
2018-07-06T08:26:39.667Z,66.05
2018-07-06T08:28:44.635Z,64.98
2018-07-06T08:30:49.821Z,65.62
2018-07-06T08:32:55.172Z,64.42
2018-07-06T08:35:16.705Z,66.15
2018-07-06T08:37:43.225Z,64.91
2018-07-06T08:39:48.581Z,65.20
2018-07-06T08:41:53.989Z,64.76
2018-07-06T08:43:59.002Z,65.98
2018-07-06T08:46:04.155Z,65.33
2018-07-06T08:48:09.198Z,64.84
2018-07-06T08:50:14.375Z,63.94
2018-07-06T08:52:19.651Z,63.93
2018-07-06T08:54:25.846Z,63.44
2018-07-06T08:56:32.274Z,63.42
2018-07-06T08:58:37.280Z,63.77
2018-07-06T09:00:42.119Z,62.89
2018-07-06T09:02:47.109Z,64.18
2018-07-06T09:04:52.954Z,63.55
2018-07-06T09:06:58.108Z,62.58
2018-07-06T09:09:03.244Z,61.12
2018-07-06T09:11:08.226Z,59.02
2018-07-06T09:13:13.625Z,60.45
2018-07-06T09:15:18.624Z,59.76
2018-07-06T09:17:24.009Z,60.24
2018-07-06T09:19:29.201Z,61.00
2018-07-06T09:21:36.352Z,61.00
2018-07-06T09:23:41.268Z,59.86
2018-07-06T09:25:46.337Z,58.34
2018-07-06T09:27:51.691Z,58.23
2018-07-06T09:29:58.512Z,57.96
2018-07-06T09:32:03.493Z,59.57
2018-07-06T09:34:09.392Z,60.30
2018-07-06T09:36:14.446Z,58.93
2018-07-06T09:38:19.356Z,60.73
2018-07-06T09:40:24.236Z,60.30
2018-07-06T09:42:29.289Z,58.77
2018-07-06T09:44:34.399Z,58.23
2018-07-06T09:46:39.353Z,58.44
2018-07-06T09:48:44.379Z,58.16
2018-07-06T09:50:49.362Z,59.51
2018-07-06T09:52:54.629Z,59.71
2018-07-06T09:54:59.617Z,56.97
2018-07-06T09:57:04.559Z,57.23
2018-07-06T09:59:09.567Z,58.56
2018-07-06T10:01:15.100Z,58.79
2018-07-06T10:03:19.998Z,58.25
2018-07-06T10:05:25.145Z,57.71
2018-07-06T10:07:30.052Z,58.43
2018-07-06T10:09:35.163Z,59.37
2018-07-06T10:11:40.142Z,58.96
2018-07-06T10:13:45.115Z,58.94
2018-07-06T10:15:50.145Z,57.33
2018-07-06T10:17:55.188Z,57.44
2018-07-06T10:20:00.582Z,58.39
2018-07-06T10:22:06.160Z,57.01
2018-07-06T10:24:11.158Z,56.99
2018-07-06T10:26:16.044Z,57.24
2018-07-06T10:30:49.319Z,57.36
2018-07-06T10:32:54.348Z,58.87
2018-07-06T10:34:59.806Z,58.23
2018-07-06T10:37:04.719Z,57.49
2018-07-06T10:39:09.675Z,57.17
2018-07-06T10:41:14.804Z,57.28
2018-07-06T10:43:19.939Z,55.45
2018-07-06T10:45:25.191Z,55.33
2018-07-06T10:47:30.340Z,54.86
2018-07-06T10:49:35.453Z,55.12
2018-07-06T10:51:40.360Z,55.03
2018-07-06T10:53:45.307Z,55.55
2018-07-06T10:55:50.247Z,55.58
2018-07-06T10:57:55.737Z,55.27
2018-07-06T11:00:00.702Z,55.57
2018-07-06T11:02:05.755Z,55.98
2018-07-06T11:04:10.842Z,55.22
2018-07-06T11:06:15.768Z,53.81
2018-07-06T11:08:20.858Z,52.90
2018-07-06T11:10:25.861Z,52.21
2018-07-06T11:12:30.805Z,53.50
2018-07-06T11:14:36.133Z,53.51
2018-07-06T11:16:41.022Z,52.45
2018-07-06T11:18:45.945Z,53.04
2018-07-06T11:20:51.684Z,53.04
2018-07-06T11:22:56.736Z,52.98
2018-07-06T11:25:01.945Z,51.74
2018-07-06T11:27:06.776Z,53.05
2018-07-06T11:29:11.631Z,51.72
2018-07-06T11:31:16.560Z,50.92
2018-07-06T11:33:21.604Z,50.25
2018-07-06T11:35:26.588Z,49.93
2018-07-06T11:37:31.710Z,49.88
2018-07-06T11:39:36.928Z,51.01
2018-07-06T11:41:42.031Z,51.27
2018-07-06T11:43:47.414Z,51.01
2018-07-06T11:45:52.565Z,50.88
2018-07-06T11:47:57.422Z,50.17
2018-07-06T11:50:02.907Z,49.67
2018-07-06T11:52:09.587Z,50.67
2018-07-06T11:54:14.669Z,51.08
2018-07-06T11:56:20.216Z,51.15
2018-07-06T11:58:25.729Z,51.38
2018-07-06T12:00:30.841Z,50.35
2018-07-06T12:02:36.103Z,50.80
2018-07-06T12:04:41.253Z,50.40
2018-07-06T12:06:46.147Z,48.49
2018-07-06T12:08:51.831Z,48.80
2018-07-06T12:10:57.011Z,47.76
2018-07-06T12:13:02.349Z,47.92
2018-07-06T12:15:07.607Z,48.25
2018-07-06T12:17:44.758Z,48.82
2018-07-06T12:19:49.571Z,47.35
2018-07-06T12:21:54.506Z,47.17
2018-07-06T12:23:59.397Z,47.21
2018-07-06T12:26:04.324Z,47.42
2018-07-06T12:28:09.232Z,46.90
2018-07-06T12:30:14.351Z,46.95
2018-07-06T12:32:19.263Z,45.56
2018-07-06T12:34:24.835Z,46.79
2018-07-06T12:36:29.899Z,48.00
2018-07-06T12:38:36.176Z,48.06
2018-07-06T12:40:41.175Z,47.33
2018-07-06T12:42:46.143Z,46.99
2018-07-06T12:44:51.015Z,45.90
2018-07-06T12:47:01.482Z,46.18
2018-07-06T12:49:06.552Z,46.56
2018-07-06T12:51:11.826Z,45.77
2018-07-06T12:53:16.754Z,46.18
2018-07-06T12:55:22.191Z,44.67
2018-07-06T12:57:27.185Z,44.88
2018-07-06T12:59:32.298Z,44.88
2018-07-06T13:01:37.807Z,45.82
2018-07-06T13:03:42.938Z,44.11
2018-07-06T13:05:47.893Z,44.40
2018-07-06T13:07:53.601Z,43.71
2018-07-06T13:09:58.675Z,44.18
2018-07-06T13:12:04.202Z,44.52
2018-07-06T13:14:16.196Z,44.03
2018-07-06T13:16:21.880Z,42.96
2018-07-06T13:18:26.848Z,43.73
2018-07-06T13:20:31.944Z,44.14
2018-07-06T13:22:37.142Z,44.15
2018-07-06T13:24:42.534Z,43.73
2018-07-06T13:26:47.469Z,44.25
2018-07-06T13:28:53.090Z,44.63
2018-07-06T13:30:58.484Z,43.70
2018-07-06T13:33:03.806Z,45.07
2018-07-06T13:35:12.172Z,44.80
2018-07-06T13:37:16.926Z,43.87
2018-07-06T13:39:21.695Z,44.93
2018-07-06T13:41:26.639Z,43.89
2018-07-06T13:43:31.665Z,43.67
2018-07-06T13:45:36.641Z,44.82
2018-07-06T13:47:41.557Z,44.95
2018-07-06T13:49:46.420Z,45.61
2018-07-06T13:51:51.854Z,46.29
2018-07-06T13:53:56.862Z,45.83
2018-07-06T13:56:01.742Z,45.74
2018-07-06T13:58:06.584Z,46.43
2018-07-06T14:00:11.893Z,45.76
2018-07-06T14:02:16.859Z,45.24
2018-07-06T14:04:21.804Z,45.53
2018-07-06T14:06:26.817Z,45.81
2018-07-06T14:08:31.944Z,45.81
2018-07-06T14:10:37.108Z,45.92
2018-07-06T14:12:42.391Z,44.69
2018-07-06T14:14:48.681Z,44.97
2018-07-06T14:16:53.611Z,45.29
2018-07-06T14:18:58.535Z,45.24
2018-07-06T14:21:03.846Z,44.12
2018-07-06T14:23:09.022Z,44.28
2018-07-06T14:25:14.003Z,43.85
2018-07-06T14:27:18.956Z,44.33
2018-07-06T14:29:24.426Z,43.79
2018-07-06T14:31:29.560Z,43.96
2018-07-06T14:33:34.422Z,44.64
2018-07-06T14:35:39.542Z,45.25
2018-07-06T14:37:44.512Z,44.89
2018-07-06T14:39:49.439Z,44.78
2018-07-06T14:41:54.628Z,44.22
2018-07-06T14:43:59.832Z,44.27
2018-07-06T14:46:04.968Z,44.57
2018-07-06T14:48:09.937Z,44.30
2018-07-06T14:50:14.978Z,42.41
2018-07-06T14:52:19.738Z,42.59
2018-07-06T14:54:24.751Z,42.00
2018-07-06T14:56:29.590Z,41.61
2018-07-06T14:58:34.382Z,42.20
2018-07-06T15:00:39.195Z,41.91
2018-07-06T15:02:44.306Z,42.91
2018-07-06T15:04:49.208Z,43.20
2018-07-06T15:06:54.112Z,42.53
2018-07-06T15:08:59.114Z,43.37
2018-07-06T15:11:04.142Z,43.78
2018-07-06T15:13:09.293Z,42.82
2018-07-06T15:15:14.220Z,42.99
2018-07-06T15:17:19.221Z,42.77
2018-07-06T15:19:24.332Z,43.05
2018-07-06T15:21:29.330Z,42.10
2018-07-06T15:23:34.324Z,41.98
2018-07-06T15:25:39.292Z,42.00
2018-07-06T15:27:44.508Z,40.92
2018-07-06T15:29:49.450Z,40.05
2018-07-06T15:31:54.504Z,40.50
2018-07-06T15:33:59.505Z,40.27
2018-07-06T15:36:04.425Z,39.92
2018-07-06T15:38:09.495Z,39.26
2018-07-06T15:40:14.440Z,39.90
2018-07-06T15:42:19.371Z,39.00
2018-07-06T15:44:24.537Z,39.58
2018-07-06T15:46:29.792Z,39.33
2018-07-06T15:48:34.795Z,39.56
2018-07-06T15:50:39.943Z,40.35
2018-07-06T15:52:44.999Z,40.75
2018-07-06T15:54:49.893Z,38.63
2018-07-06T15:56:54.900Z,39.02
2018-07-06T15:58:59.776Z,40.26
2018-07-06T16:01:04.776Z,40.09
2018-07-06T16:03:09.715Z,40.37
2018-07-06T16:05:14.604Z,39.85
2018-07-06T16:07:19.534Z,39.63
2018-07-06T16:09:24.627Z,39.43
2018-07-06T16:11:29.559Z,40.11
2018-07-06T16:13:34.542Z,39.62
2018-07-06T16:15:39.371Z,40.50
2018-07-06T16:17:44.549Z,39.80
2018-07-06T16:19:49.340Z,38.42
2018-07-06T16:21:54.201Z,39.42
2018-07-06T16:23:59.268Z,39.28
2018-07-06T16:26:04.424Z,39.36
2018-07-06T16:28:09.369Z,39.89
2018-07-06T16:30:17.072Z,40.44
2018-07-06T16:32:22.233Z,40.13
2018-07-06T16:34:27.289Z,40.65
2018-07-06T16:36:32.456Z,39.64
2018-07-06T16:38:38.178Z,38.00
2018-07-06T16:40:43.158Z,38.38
2018-07-06T16:42:48.140Z,37.74
2018-07-06T16:44:53.449Z,39.13
2018-07-06T16:46:58.572Z,39.00
2018-07-06T16:49:03.735Z,39.01
2018-07-06T16:51:08.953Z,39.11
2018-07-06T16:53:14.650Z,39.25
2018-07-06T16:55:20.149Z,39.21
2018-07-06T16:57:25.152Z,38.86
2018-07-06T16:59:30.324Z,39.20
2018-07-06T17:01:35.444Z,38.13
2018-07-06T17:03:40.615Z,38.75
2018-07-06T17:05:45.912Z,38.69
2018-07-06T17:07:51.016Z,38.15
2018-07-06T17:09:56.111Z,38.84
2018-07-06T17:12:01.413Z,37.74
2018-07-06T17:14:06.700Z,37.31
2018-07-06T17:16:12.160Z,38.52
2018-07-06T17:18:17.447Z,38.22
2018-07-06T17:20:22.547Z,38.69
2018-07-06T17:22:27.670Z,38.21
2018-07-06T17:26:48.581Z,38.48
2018-07-06T17:28:55.759Z,37.92
2018-07-06T17:31:01.043Z,39.30
2018-07-06T17:33:06.035Z,38.91
2018-07-06T17:35:11.049Z,39.37
2018-07-06T17:37:16.360Z,38.91
2018-07-06T17:39:21.901Z,39.17
2018-07-06T17:41:27.144Z,40.26
2018-07-06T17:43:32.128Z,39.09
2018-07-06T17:45:37.200Z,40.17
2018-07-06T17:47:42.390Z,40.13
2018-07-06T17:49:48.357Z,38.89
2018-07-06T17:51:53.792Z,39.20
2018-07-06T17:53:58.987Z,37.89
2018-07-06T17:56:04.634Z,38.05
2018-07-06T17:58:14.781Z,36.94
2018-07-06T18:00:19.813Z,37.37
2018-07-06T18:02:25.090Z,36.68
2018-07-06T18:04:30.172Z,36.74
2018-07-06T18:06:35.742Z,37.32
2018-07-06T18:08:42.733Z,37.60
2018-07-06T18:10:48.923Z,38.29
2018-07-06T18:12:54.191Z,38.34
2018-07-06T18:14:59.342Z,38.76
2018-07-06T18:17:05.001Z,39.37
2018-07-06T18:19:11.533Z,39.32
2018-07-06T18:21:17.210Z,39.26
2018-07-06T18:23:22.971Z,38.81
2018-07-06T18:25:28.651Z,39.82
2018-07-06T18:27:34.571Z,40.55
2018-07-06T18:29:40.182Z,40.14
2018-07-06T18:31:45.844Z,40.64
2018-07-06T18:33:51.613Z,40.98
2018-07-06T18:36:04.504Z,41.47
2018-07-06T18:38:14.141Z,40.81
2018-07-06T18:40:24.668Z,40.13
2018-07-06T18:42:32.035Z,41.38
2018-07-06T18:44:40.794Z,41.17
2018-07-06T18:46:47.714Z,41.15
2018-07-06T18:48:54.553Z,41.02
2018-07-06T18:51:01.586Z,40.72
2018-07-06T18:53:07.809Z,41.53
2018-07-06T18:55:15.137Z,40.49
2018-07-06T18:57:21.065Z,41.33
2018-07-06T18:59:34.775Z,41.02
2018-07-06T19:01:44.705Z,40.91
2018-07-06T19:03:51.909Z,41.89
2018-07-06T19:05:58.830Z,41.66
2018-07-06T19:08:07.399Z,41.91
2018-07-06T19:10:12.559Z,41.43
2018-07-06T19:14:37.973Z,40.84
2018-07-06T19:16:49.040Z,41.75
2018-07-06T19:19:00.717Z,41.40
2018-07-06T19:21:11.411Z,41.34
2018-07-06T19:23:18.749Z,41.75
2018-07-06T19:25:26.311Z,42.00
2018-07-06T19:27:32.002Z,42.39
2018-07-06T19:29:37.551Z,41.80
2018-07-06T19:31:46.189Z,42.73
2018-07-06T19:33:56.043Z,42.83
2018-07-06T19:36:05.269Z,43.54
2018-07-06T19:38:10.363Z,43.63
2018-07-06T19:40:15.539Z,43.32
2018-07-06T19:42:21.678Z,43.73
2018-07-06T19:44:27.103Z,44.15
2018-07-06T19:46:39.457Z,43.54
2018-07-06T19:48:45.764Z,43.87
2018-07-06T19:50:51.583Z,44.64
2018-07-06T19:52:57.933Z,44.62
2018-07-06T19:55:03.850Z,45.01
2018-07-06T19:57:10.638Z,44.76
2018-07-06T19:59:16.704Z,44.67
2018-07-06T20:01:22.405Z,45.21
2018-07-06T20:03:27.942Z,44.63
2018-07-06T20:05:51.839Z,45.06
2018-07-06T20:08:08.154Z,44.80
2018-07-06T20:10:13.402Z,45.53
2018-07-06T20:12:19.040Z,45.04
2018-07-06T20:14:24.681Z,45.12
2018-07-06T20:16:31.035Z,45.72
2018-07-06T20:18:36.363Z,45.74
2018-07-06T20:20:41.671Z,46.19
2018-07-06T20:22:47.156Z,46.41
2018-07-06T20:24:53.287Z,46.02
2018-07-06T20:26:58.705Z,46.56
2018-07-06T20:29:04.637Z,46.02
2018-07-06T20:31:10.427Z,46.23
2018-07-06T20:33:15.982Z,46.32
2018-07-06T20:35:21.668Z,46.51
2018-07-06T20:37:27.225Z,46.77
2018-07-06T20:39:32.588Z,46.88
2018-07-06T20:41:38.425Z,47.34
2018-07-06T20:43:45.637Z,47.10
2018-07-06T20:45:51.173Z,47.55
2018-07-06T20:47:57.217Z,47.72
2018-07-06T20:50:02.672Z,47.24
2018-07-06T20:52:08.281Z,47.21
2018-07-06T20:54:13.847Z,48.24
2018-07-06T20:56:19.632Z,48.27
2018-07-06T20:58:25.168Z,48.02
2018-07-06T21:00:30.576Z,47.75
2018-07-06T21:02:36.023Z,48.18
2018-07-06T21:04:42.018Z,48.38
2018-07-06T21:06:49.607Z,48.39
2018-07-06T21:08:57.589Z,48.12
2018-07-06T21:11:04.063Z,47.73
2018-07-06T21:13:09.571Z,48.75
2018-07-06T21:15:14.906Z,48.06
2018-07-06T21:17:20.565Z,48.61
2018-07-06T21:19:26.144Z,49.27
2018-07-06T21:21:31.682Z,49.55
2018-07-06T21:23:36.826Z,49.12
2018-07-06T21:25:42.644Z,49.55
2018-07-06T21:27:49.004Z,49.66
2018-07-06T21:29:54.489Z,49.58
2018-07-06T21:31:59.692Z,49.96
2018-07-06T21:34:05.290Z,50.30
2018-07-06T21:36:10.479Z,49.63
2018-07-06T21:38:15.730Z,49.72
2018-07-06T21:40:21.196Z,49.95
2018-07-06T21:42:26.500Z,50.53
2018-07-06T21:44:32.293Z,50.98
2018-07-06T21:46:37.861Z,50.64
2018-07-06T21:48:43.961Z,51.13
2018-07-06T21:50:49.819Z,50.71
2018-07-06T21:52:55.613Z,51.33
2018-07-06T21:55:00.925Z,51.26
2018-07-06T21:57:06.328Z,50.89
2018-07-06T21:59:12.115Z,51.46
2018-07-06T22:01:17.576Z,51.77
2018-07-06T22:03:23.502Z,51.08
2018-07-06T22:05:29.536Z,51.23
2018-07-06T22:07:35.149Z,51.76
2018-07-06T22:09:40.723Z,52.59
2018-07-06T22:11:46.117Z,52.10
2018-07-06T22:13:51.408Z,52.54
2018-07-06T22:15:56.719Z,52.87
2018-07-06T22:18:03.398Z,52.58
2018-07-06T22:20:08.213Z,52.96
2018-07-06T22:22:13.792Z,53.29
2018-07-06T22:24:19.471Z,52.75
2018-07-06T22:26:24.901Z,53.55
2018-07-06T22:28:30.425Z,53.67
2018-07-06T22:30:36.107Z,53.14
2018-07-06T22:32:52.519Z,52.91
2018-07-06T22:34:59.813Z,53.90
2018-07-06T22:37:08.901Z,53.82
2018-07-06T22:39:14.343Z,53.55
2018-07-06T22:41:19.477Z,53.71
2018-07-06T22:43:24.652Z,53.83
2018-07-06T22:45:30.025Z,54.26
2018-07-06T22:47:35.307Z,54.84
2018-07-06T22:49:40.584Z,54.86
2018-07-06T22:51:47.728Z,54.25
2018-07-06T22:53:52.811Z,54.25
2018-07-06T22:55:57.777Z,54.17
2018-07-06T22:58:03.090Z,54.61
2018-07-06T23:00:08.332Z,55.00
2018-07-06T23:02:14.187Z,55.28
2018-07-06T23:04:19.344Z,54.52
2018-07-06T23:06:24.459Z,55.20
2018-07-06T23:08:29.557Z,55.37
2018-07-06T23:10:34.735Z,54.85
2018-07-06T23:12:40.432Z,54.54
2018-07-06T23:14:45.425Z,54.60
2018-07-06T23:16:50.653Z,54.96
2018-07-06T23:18:55.989Z,55.35
2018-07-06T23:21:00.993Z,54.30
2018-07-06T23:23:08.011Z,54.57
2018-07-06T23:25:13.261Z,55.20
2018-07-06T23:27:18.384Z,55.01
2018-07-06T23:29:24.928Z,54.91
2018-07-06T23:31:30.095Z,54.95
2018-07-06T23:33:36.097Z,55.25
2018-07-06T23:35:41.455Z,55.62
2018-07-06T23:37:46.506Z,55.52
2018-07-06T23:39:51.567Z,55.56
2018-07-06T23:41:56.727Z,56.26
2018-07-06T23:44:01.760Z,55.55
2018-07-06T23:46:06.917Z,55.60
2018-07-06T23:48:11.867Z,56.28
2018-07-06T23:50:17.240Z,56.61
2018-07-06T23:52:22.463Z,56.77
2018-07-06T23:54:27.422Z,56.39
2018-07-06T23:56:32.386Z,57.00
2018-07-06T23:58:38.084Z,56.72
